sensor_id;sensor_type;location;lat;lon;timestamp;temperature;humidity
18412;DHT22;27097;51.738;19.472;2022-08-30T00:01:02;25.80;59.30
18412;DHT22;27097;51.738;19.472;2022-08-30T00:03:30;25.80;59.70
18412;DHT22;27097;51.738;19.472;2022-08-30T00:05:58;25.80;59.60
18412;DHT22;27097;51.738;19.472;2022-08-30T00:08:27;25.90;59.90
18412;DHT22;27097;51.738;19.472;2022-08-30T00:10:54;25.90;59.80
18412;DHT22;27097;51.738;19.472;2022-08-30T00:13:22;25.90;59.60
18412;DHT22;27097;51.738;19.472;2022-08-30T00:15:49;25.90;59.80
18412;DHT22;27097;51.738;19.472;2022-08-30T00:18:17;25.90;59.80
18412;DHT22;27097;51.738;19.472;2022-08-30T00:20:46;25.90;59.70
18412;DHT22;27097;51.738;19.472;2022-08-30T00:23:15;25.90;59.70
18412;DHT22;27097;51.738;19.472;2022-08-30T00:25:43;25.90;59.60
18412;DHT22;27097;51.738;19.472;2022-08-30T00:28:11;25.90;59.70
18412;DHT22;27097;51.738;19.472;2022-08-30T00:30:38;25.90;59.70
18412;DHT22;27097;51.738;19.472;2022-08-30T00:33:05;25.90;59.70
18412;DHT22;27097;51.738;19.472;2022-08-30T00:35:34;25.90;59.70
18412;DHT22;27097;51.738;19.472;2022-08-30T00:38:03;25.90;59.60
18412;DHT22;27097;51.738;19.472;2022-08-30T00:40:30;25.90;59.70
18412;DHT22;27097;51.738;19.472;2022-08-30T00:43:00;25.90;59.70
18412;DHT22;27097;51.738;19.472;2022-08-30T00:45:30;25.90;59.80
18412;DHT22;27097;51.738;19.472;2022-08-30T00:47:58;26.00;59.90
18412;DHT22;27097;51.738;19.472;2022-08-30T00:50:28;26.00;59.70
18412;DHT22;27097;51.738;19.472;2022-08-30T00:52:59;26.00;59.80
18412;DHT22;27097;51.738;19.472;2022-08-30T00:55:28;26.00;59.80
18412;DHT22;27097;51.738;19.472;2022-08-30T00:58:04;26.00;59.80
18412;DHT22;27097;51.738;19.472;2022-08-30T01:00:32;26.00;59.80
18412;DHT22;27097;51.738;19.472;2022-08-30T01:02:59;26.00;59.90
18412;DHT22;27097;51.738;19.472;2022-08-30T01:05:26;26.00;59.80
18412;DHT22;27097;51.738;19.472;2022-08-30T01:07:53;26.00;59.90
18412;DHT22;27097;51.738;19.472;2022-08-30T01:10:20;26.00;59.80
18412;DHT22;27097;51.738;19.472;2022-08-30T01:12:47;26.00;60.00
18412;DHT22;27097;51.738;19.472;2022-08-30T01:15:16;26.10;60.00
18412;DHT22;27097;51.738;19.472;2022-08-30T01:17:44;26.00;60.00
18412;DHT22;27097;51.738;19.472;2022-08-30T01:20:15;26.00;60.00
18412;DHT22;27097;51.738;19.472;2022-08-30T01:22:58;26.10;60.50
18412;DHT22;27097;51.738;19.472;2022-08-30T01:25:28;26.00;59.90
18412;DHT22;27097;51.738;19.472;2022-08-30T01:27:59;26.10;60.00
18412;DHT22;27097;51.738;19.472;2022-08-30T01:30:27;26.10;60.00
18412;DHT22;27097;51.738;19.472;2022-08-30T01:32:57;26.10;60.00
18412;DHT22;27097;51.738;19.472;2022-08-30T01:35:24;26.10;60.30
18412;DHT22;27097;51.738;19.472;2022-08-30T01:37:53;26.10;60.50
18412;DHT22;27097;51.738;19.472;2022-08-30T01:40:20;26.10;60.50
18412;DHT22;27097;51.738;19.472;2022-08-30T01:42:47;26.10;60.50
18412;DHT22;27097;51.738;19.472;2022-08-30T01:45:15;26.10;60.60
18412;DHT22;27097;51.738;19.472;2022-08-30T01:47:42;26.10;60.40
18412;DHT22;27097;51.738;19.472;2022-08-30T01:50:10;26.10;60.50
18412;DHT22;27097;51.738;19.472;2022-08-30T01:52:37;26.10;60.60
18412;DHT22;27097;51.738;19.472;2022-08-30T01:55:07;26.10;60.60
18412;DHT22;27097;51.738;19.472;2022-08-30T01:57:34;26.10;60.50
18412;DHT22;27097;51.738;19.472;2022-08-30T02:00:03;26.10;60.60
18412;DHT22;27097;51.738;19.472;2022-08-30T02:02:30;26.10;60.70
18412;DHT22;27097;51.738;19.472;2022-08-30T02:04:57;26.10;60.50
18412;DHT22;27097;51.738;19.472;2022-08-30T02:07:24;26.10;60.40
18412;DHT22;27097;51.738;19.472;2022-08-30T02:09:52;26.10;61.40
18412;DHT22;27097;51.738;19.472;2022-08-30T02:12:20;26.20;60.90
18412;DHT22;27097;51.738;19.472;2022-08-30T02:14:47;26.10;60.80
18412;DHT22;27097;51.738;19.472;2022-08-30T02:17:15;26.10;60.80
18412;DHT22;27097;51.738;19.472;2022-08-30T02:19:44;26.10;60.60
18412;DHT22;27097;51.738;19.472;2022-08-30T02:22:12;26.10;60.70
18412;DHT22;27097;51.738;19.472;2022-08-30T02:24:39;26.20;60.60
18412;DHT22;27097;51.738;19.472;2022-08-30T02:27:06;26.20;60.70
18412;DHT22;27097;51.738;19.472;2022-08-30T02:29:50;26.20;60.60
18412;DHT22;27097;51.738;19.472;2022-08-30T02:32:17;26.20;60.70
18412;DHT22;27097;51.738;19.472;2022-08-30T02:34:44;26.20;60.50
18412;DHT22;27097;51.738;19.472;2022-08-30T02:37:12;26.20;60.70
18412;DHT22;27097;51.738;19.472;2022-08-30T02:39:40;26.20;60.80
18412;DHT22;27097;51.738;19.472;2022-08-30T02:42:07;26.20;60.50
18412;DHT22;27097;51.738;19.472;2022-08-30T02:44:35;26.20;60.50
18412;DHT22;27097;51.738;19.472;2022-08-30T02:47:02;26.20;60.60
18412;DHT22;27097;51.738;19.472;2022-08-30T02:49:29;26.20;60.70
18412;DHT22;27097;51.738;19.472;2022-08-30T02:51:56;26.20;60.80
18412;DHT22;27097;51.738;19.472;2022-08-30T02:54:24;26.20;60.80
18412;DHT22;27097;51.738;19.472;2022-08-30T02:56:50;26.20;60.20
18412;DHT22;27097;51.738;19.472;2022-08-30T02:59:18;26.20;60.30
18412;DHT22;27097;51.738;19.472;2022-08-30T03:01:46;26.10;60.70
18412;DHT22;27097;51.738;19.472;2022-08-30T03:04:13;26.10;60.60
18412;DHT22;27097;51.738;19.472;2022-08-30T03:06:40;26.20;60.50
18412;DHT22;27097;51.738;19.472;2022-08-30T03:09:08;26.10;59.80
18412;DHT22;27097;51.738;19.472;2022-08-30T03:11:35;26.10;60.20
18412;DHT22;27097;51.738;19.472;2022-08-30T03:14:02;26.10;60.40
18412;DHT22;27097;51.738;19.472;2022-08-30T03:16:29;26.10;60.40
18412;DHT22;27097;51.738;19.472;2022-08-30T03:18:58;26.10;60.50
18412;DHT22;27097;51.738;19.472;2022-08-30T03:21:24;26.10;60.70
18412;DHT22;27097;51.738;19.472;2022-08-30T03:23:51;26.10;60.60
18412;DHT22;27097;51.738;19.472;2022-08-30T03:26:18;26.10;60.60
18412;DHT22;27097;51.738;19.472;2022-08-30T03:28:45;26.10;60.80
18412;DHT22;27097;51.738;19.472;2022-08-30T03:31:12;26.10;60.60
18412;DHT22;27097;51.738;19.472;2022-08-30T03:33:39;26.10;60.90
18412;DHT22;27097;51.738;19.472;2022-08-30T03:36:09;26.10;61.00
18412;DHT22;27097;51.738;19.472;2022-08-30T03:38:36;26.10;61.00
18412;DHT22;27097;51.738;19.472;2022-08-30T03:41:03;26.10;60.80
18412;DHT22;27097;51.738;19.472;2022-08-30T03:43:31;26.10;60.80
18412;DHT22;27097;51.738;19.472;2022-08-30T03:45:59;26.10;61.20
18412;DHT22;27097;51.738;19.472;2022-08-30T03:48:26;26.10;60.80
18412;DHT22;27097;51.738;19.472;2022-08-30T03:50:53;26.10;60.70
18412;DHT22;27097;51.738;19.472;2022-08-30T03:53:21;26.10;60.70
18412;DHT22;27097;51.738;19.472;2022-08-30T03:55:48;26.10;60.80
18412;DHT22;27097;51.738;19.472;2022-08-30T03:58:15;26.10;60.90
18412;DHT22;27097;51.738;19.472;2022-08-30T04:00:42;26.10;60.90
18412;DHT22;27097;51.738;19.472;2022-08-30T04:03:09;26.10;60.80
18412;DHT22;27097;51.738;19.472;2022-08-30T04:05:36;26.10;60.80
18412;DHT22;27097;51.738;19.472;2022-08-30T04:08:03;26.10;60.90
18412;DHT22;27097;51.738;19.472;2022-08-30T04:10:31;26.10;60.50
18412;DHT22;27097;51.738;19.472;2022-08-30T04:12:59;26.10;60.80
18412;DHT22;27097;51.738;19.472;2022-08-30T04:15:26;26.10;60.70
18412;DHT22;27097;51.738;19.472;2022-08-30T04:17:53;26.10;60.90
18412;DHT22;27097;51.738;19.472;2022-08-30T04:20:20;26.10;60.90
18412;DHT22;27097;51.738;19.472;2022-08-30T04:22:47;26.10;61.00
18412;DHT22;27097;51.738;19.472;2022-08-30T04:25:15;26.10;60.80
18412;DHT22;27097;51.738;19.472;2022-08-30T04:27:44;26.10;60.80
18412;DHT22;27097;51.738;19.472;2022-08-30T04:30:12;26.10;60.80
18412;DHT22;27097;51.738;19.472;2022-08-30T04:32:39;26.10;60.90
18412;DHT22;27097;51.738;19.472;2022-08-30T04:35:06;26.10;61.00
18412;DHT22;27097;51.738;19.472;2022-08-30T04:37:34;26.10;61.00
18412;DHT22;27097;51.738;19.472;2022-08-30T04:40:01;26.20;61.00
18412;DHT22;27097;51.738;19.472;2022-08-30T04:42:31;26.10;61.10
18412;DHT22;27097;51.738;19.472;2022-08-30T04:45:02;26.20;61.10
18412;DHT22;27097;51.738;19.472;2022-08-30T04:47:29;26.20;61.30
18412;DHT22;27097;51.738;19.472;2022-08-30T04:49:57;26.30;61.20
18412;DHT22;27097;51.738;19.472;2022-08-30T04:52:27;26.30;61.40
18412;DHT22;27097;51.738;19.472;2022-08-30T04:54:54;26.30;61.40
18412;DHT22;27097;51.738;19.472;2022-08-30T04:57:22;26.30;61.50
18412;DHT22;27097;51.738;19.472;2022-08-30T04:59:49;26.30;61.20
18412;DHT22;27097;51.738;19.472;2022-08-30T05:02:17;26.30;61.10
18412;DHT22;27097;51.738;19.472;2022-08-30T05:04:44;26.30;60.70
18412;DHT22;27097;51.738;19.472;2022-08-30T05:07:25;26.30;61.00
18412;DHT22;27097;51.738;19.472;2022-08-30T05:09:52;26.30;61.20
18412;DHT22;27097;51.738;19.472;2022-08-30T05:12:19;26.30;60.90
18412;DHT22;27097;51.738;19.472;2022-08-30T05:14:46;26.30;60.70
18412;DHT22;27097;51.738;19.472;2022-08-30T05:17:13;26.20;60.20
18412;DHT22;27097;51.738;19.472;2022-08-30T05:19:42;26.20;61.00
18412;DHT22;27097;51.738;19.472;2022-08-30T05:22:09;26.20;60.80
18412;DHT22;27097;51.738;19.472;2022-08-30T05:24:36;26.20;60.30
18412;DHT22;27097;51.738;19.472;2022-08-30T05:27:06;26.10;61.80
18412;DHT22;27097;51.738;19.472;2022-08-30T05:29:33;26.10;61.80
18412;DHT22;27097;51.738;19.472;2022-08-30T05:32:03;26.10;62.50
18412;DHT22;27097;51.738;19.472;2022-08-30T05:34:30;26.10;62.20
18412;DHT22;27097;51.738;19.472;2022-08-30T05:36:58;26.10;62.00
18412;DHT22;27097;51.738;19.472;2022-08-30T05:39:27;26.10;61.70
18412;DHT22;27097;51.738;19.472;2022-08-30T05:41:55;26.20;62.50
18412;DHT22;27097;51.738;19.472;2022-08-30T05:44:22;26.20;62.60
18412;DHT22;27097;51.738;19.472;2022-08-30T05:46:49;26.20;62.70
18412;DHT22;27097;51.738;19.472;2022-08-30T05:49:16;26.20;62.50
18412;DHT22;27097;51.738;19.472;2022-08-30T05:51:43;26.30;62.50
18412;DHT22;27097;51.738;19.472;2022-08-30T05:54:13;26.20;62.50
18412;DHT22;27097;51.738;19.472;2022-08-30T05:56:42;26.20;62.20
18412;DHT22;27097;51.738;19.472;2022-08-30T05:59:10;26.30;62.70
18412;DHT22;27097;51.738;19.472;2022-08-30T06:01:39;26.30;62.20
18412;DHT22;27097;51.738;19.472;2022-08-30T06:04:08;26.30;61.70
18412;DHT22;27097;51.738;19.472;2022-08-30T06:06:36;26.30;62.20
18412;DHT22;27097;51.738;19.472;2022-08-30T06:09:04;26.30;62.10
18412;DHT22;27097;51.738;19.472;2022-08-30T06:11:33;26.30;62.20
18412;DHT22;27097;51.738;19.472;2022-08-30T06:14:01;26.30;62.00
18412;DHT22;27097;51.738;19.472;2022-08-30T06:16:28;26.30;62.20
18412;DHT22;27097;51.738;19.472;2022-08-30T06:18:57;26.30;62.30
18412;DHT22;27097;51.738;19.472;2022-08-30T06:21:26;26.30;62.30
18412;DHT22;27097;51.738;19.472;2022-08-30T06:23:56;26.30;61.10
18412;DHT22;27097;51.738;19.472;2022-08-30T06:26:23;26.30;61.90
18412;DHT22;27097;51.738;19.472;2022-08-30T06:28:52;26.30;61.50
18412;DHT22;27097;51.738;19.472;2022-08-30T06:31:20;26.30;61.10
18412;DHT22;27097;51.738;19.472;2022-08-30T06:33:48;26.30;62.10
18412;DHT22;27097;51.738;19.472;2022-08-30T06:36:17;26.40;62.10
18412;DHT22;27097;51.738;19.472;2022-08-30T06:38:46;26.40;62.50
18412;DHT22;27097;51.738;19.472;2022-08-30T06:41:18;26.40;62.40
18412;DHT22;27097;51.738;19.472;2022-08-30T06:43:46;26.40;61.90
18412;DHT22;27097;51.738;19.472;2022-08-30T06:46:16;26.40;61.70
18412;DHT22;27097;51.738;19.472;2022-08-30T06:48:43;26.50;61.90
18412;DHT22;27097;51.738;19.472;2022-08-30T06:51:10;26.50;61.90
18412;DHT22;27097;51.738;19.472;2022-08-30T06:53:37;26.50;62.10
18412;DHT22;27097;51.738;19.472;2022-08-30T06:56:07;26.50;62.40
18412;DHT22;27097;51.738;19.472;2022-08-30T06:58:36;26.50;62.30
18412;DHT22;27097;51.738;19.472;2022-08-30T07:01:17;26.50;62.70
18412;DHT22;27097;51.738;19.472;2022-08-30T07:03:44;26.50;62.40
18412;DHT22;27097;51.738;19.472;2022-08-30T07:06:12;26.50;62.50
18412;DHT22;27097;51.738;19.472;2022-08-30T07:08:39;26.50;62.90
18412;DHT22;27097;51.738;19.472;2022-08-30T07:11:07;26.50;62.70
18412;DHT22;27097;51.738;19.472;2022-08-30T07:13:35;26.50;62.50
18412;DHT22;27097;51.738;19.472;2022-08-30T07:16:08;26.50;62.30
18412;DHT22;27097;51.738;19.472;2022-08-30T07:18:37;26.50;62.50
18412;DHT22;27097;51.738;19.472;2022-08-30T07:21:22;26.50;62.30
18412;DHT22;27097;51.738;19.472;2022-08-30T07:23:50;26.50;62.80
18412;DHT22;27097;51.738;19.472;2022-08-30T07:26:19;26.50;62.90
18412;DHT22;27097;51.738;19.472;2022-08-30T07:28:46;26.50;62.50
18412;DHT22;27097;51.738;19.472;2022-08-30T07:31:14;26.50;62.60
18412;DHT22;27097;51.738;19.472;2022-08-30T07:33:43;26.50;62.90
18412;DHT22;27097;51.738;19.472;2022-08-30T07:36:10;26.50;62.60
18412;DHT22;27097;51.738;19.472;2022-08-30T07:38:38;26.50;63.20
18412;DHT22;27097;51.738;19.472;2022-08-30T07:41:05;26.50;63.30
18412;DHT22;27097;51.738;19.472;2022-08-30T07:43:33;26.50;63.00
18412;DHT22;27097;51.738;19.472;2022-08-30T07:46:02;26.50;63.00
18412;DHT22;27097;51.738;19.472;2022-08-30T07:48:29;26.50;63.20
18412;DHT22;27097;51.738;19.472;2022-08-30T07:50:57;26.50;63.20
18412;DHT22;27097;51.738;19.472;2022-08-30T07:53:25;26.60;63.10
18412;DHT22;27097;51.738;19.472;2022-08-30T07:55:52;26.60;63.40
18412;DHT22;27097;51.738;19.472;2022-08-30T07:58:19;26.60;59.70
18412;DHT22;27097;51.738;19.472;2022-08-30T08:00:46;26.50;59.70
18412;DHT22;27097;51.738;19.472;2022-08-30T08:03:13;26.50;61.10
18412;DHT22;27097;51.738;19.472;2022-08-30T08:05:43;26.50;60.90
18412;DHT22;27097;51.738;19.472;2022-08-30T08:08:12;26.50;59.70
18412;DHT22;27097;51.738;19.472;2022-08-30T08:10:40;26.40;59.60
18412;DHT22;27097;51.738;19.472;2022-08-30T08:13:10;26.40;59.60
18412;DHT22;27097;51.738;19.472;2022-08-30T08:15:37;26.30;58.70
18412;DHT22;27097;51.738;19.472;2022-08-30T08:18:05;26.30;59.90
18412;DHT22;27097;51.738;19.472;2022-08-30T08:20:33;26.30;61.30
18412;DHT22;27097;51.738;19.472;2022-08-30T08:23:00;26.40;61.90
18412;DHT22;27097;51.738;19.472;2022-08-30T08:25:30;26.50;62.10
18412;DHT22;27097;51.738;19.472;2022-08-30T08:27:57;26.50;61.20
18412;DHT22;27097;51.738;19.472;2022-08-30T08:30:24;26.60;61.10
18412;DHT22;27097;51.738;19.472;2022-08-30T08:32:51;26.60;61.40
18412;DHT22;27097;51.738;19.472;2022-08-30T08:35:18;26.60;61.40
18412;DHT22;27097;51.738;19.472;2022-08-30T08:37:45;26.70;61.20
18412;DHT22;27097;51.738;19.472;2022-08-30T08:40:15;26.70;60.60
18412;DHT22;27097;51.738;19.472;2022-08-30T08:42:55;26.70;60.60
18412;DHT22;27097;51.738;19.472;2022-08-30T08:45:35;26.80;60.70
18412;DHT22;27097;51.738;19.472;2022-08-30T08:48:07;26.80;60.30
18412;DHT22;27097;51.738;19.472;2022-08-30T08:50:35;26.70;59.50
18412;DHT22;27097;51.738;19.472;2022-08-30T08:53:25;26.80;60.40
18412;DHT22;27097;51.738;19.472;2022-08-30T08:56:03;26.80;60.10
18412;DHT22;27097;51.738;19.472;2022-08-30T08:58:41;26.80;60.30
18412;DHT22;27097;51.738;19.472;2022-08-30T09:01:10;26.70;59.90
18412;DHT22;27097;51.738;19.472;2022-08-30T09:03:38;26.80;59.40
18412;DHT22;27097;51.738;19.472;2022-08-30T09:06:19;26.80;59.40
18412;DHT22;27097;51.738;19.472;2022-08-30T09:08:47;26.80;58.60
18412;DHT22;27097;51.738;19.472;2022-08-30T09:11:20;26.80;58.30
18412;DHT22;27097;51.738;19.472;2022-08-30T09:13:49;26.80;59.70
18412;DHT22;27097;51.738;19.472;2022-08-30T09:16:44;26.80;59.40
18412;DHT22;27097;51.738;19.472;2022-08-30T09:19:11;26.80;58.30
18412;DHT22;27097;51.738;19.472;2022-08-30T09:21:38;26.80;58.80
18412;DHT22;27097;51.738;19.472;2022-08-30T09:24:05;26.80;58.80
18412;DHT22;27097;51.738;19.472;2022-08-30T09:26:36;26.80;58.60
18412;DHT22;27097;51.738;19.472;2022-08-30T09:29:15;26.80;57.70
18412;DHT22;27097;51.738;19.472;2022-08-30T09:31:47;26.80;58.40
18412;DHT22;27097;51.738;19.472;2022-08-30T09:34:17;26.80;59.00
18412;DHT22;27097;51.738;19.472;2022-08-30T09:36:46;26.80;58.80
18412;DHT22;27097;51.738;19.472;2022-08-30T09:39:16;26.90;59.00
18412;DHT22;27097;51.738;19.472;2022-08-30T09:41:45;26.90;58.60
18412;DHT22;27097;51.738;19.472;2022-08-30T09:44:17;26.90;58.60
18412;DHT22;27097;51.738;19.472;2022-08-30T09:46:48;26.90;58.00
18412;DHT22;27097;51.738;19.472;2022-08-30T09:49:27;26.90;58.50
18412;DHT22;27097;51.738;19.472;2022-08-30T09:52:09;26.90;57.80
18412;DHT22;27097;51.738;19.472;2022-08-30T09:54:43;26.90;58.60
18412;DHT22;27097;51.738;19.472;2022-08-30T09:57:22;26.90;58.60
18412;DHT22;27097;51.738;19.472;2022-08-30T09:59:59;26.90;57.50
18412;DHT22;27097;51.738;19.472;2022-08-30T10:02:46;26.90;57.30
18412;DHT22;27097;51.738;19.472;2022-08-30T10:05:20;27.00;57.80
18412;DHT22;27097;51.738;19.472;2022-08-30T10:07:57;27.00;58.10
18412;DHT22;27097;51.738;19.472;2022-08-30T10:10:30;27.00;57.70
18412;DHT22;27097;51.738;19.472;2022-08-30T10:13:05;27.00;58.60
18412;DHT22;27097;51.738;19.472;2022-08-30T10:15:41;27.00;58.10
18412;DHT22;27097;51.738;19.472;2022-08-30T10:18:17;27.00;58.20
18412;DHT22;27097;51.738;19.472;2022-08-30T10:20:55;27.00;58.80
18412;DHT22;27097;51.738;19.472;2022-08-30T10:23:27;27.00;58.40
18412;DHT22;27097;51.738;19.472;2022-08-30T10:26:05;27.00;57.70
18412;DHT22;27097;51.738;19.472;2022-08-30T10:28:36;27.00;57.90
18412;DHT22;27097;51.738;19.472;2022-08-30T10:31:11;27.00;58.00
18412;DHT22;27097;51.738;19.472;2022-08-30T10:33:41;27.00;57.80
18412;DHT22;27097;51.738;19.472;2022-08-30T10:36:12;27.00;57.60
18412;DHT22;27097;51.738;19.472;2022-08-30T10:38:41;27.00;57.00
18412;DHT22;27097;51.738;19.472;2022-08-30T10:41:23;27.00;57.40
18412;DHT22;27097;51.738;19.472;2022-08-30T10:43:57;27.00;57.30
18412;DHT22;27097;51.738;19.472;2022-08-30T10:46:32;27.00;56.60
18412;DHT22;27097;51.738;19.472;2022-08-30T10:49:04;27.00;57.00
18412;DHT22;27097;51.738;19.472;2022-08-30T10:51:35;27.00;57.20
18412;DHT22;27097;51.738;19.472;2022-08-30T10:54:11;27.00;56.50
18412;DHT22;27097;51.738;19.472;2022-08-30T10:56:40;27.00;55.90
18412;DHT22;27097;51.738;19.472;2022-08-30T10:59:08;27.00;56.30
18412;DHT22;27097;51.738;19.472;2022-08-30T11:01:56;27.00;56.00
18412;DHT22;27097;51.738;19.472;2022-08-30T11:04:58;27.00;55.50
18412;DHT22;27097;51.738;19.472;2022-08-30T11:07:36;27.00;55.40
18412;DHT22;27097;51.738;19.472;2022-08-30T11:10:30;27.00;55.70
18412;DHT22;27097;51.738;19.472;2022-08-30T11:13:04;27.00;56.20
18412;DHT22;27097;51.738;19.472;2022-08-30T11:15:35;27.10;56.20
18412;DHT22;27097;51.738;19.472;2022-08-30T11:18:10;27.10;56.70
18412;DHT22;27097;51.738;19.472;2022-08-30T11:20:42;27.10;56.20
18412;DHT22;27097;51.738;19.472;2022-08-30T11:23:26;27.00;56.20
18412;DHT22;27097;51.738;19.472;2022-08-30T11:25:55;27.10;56.90
18412;DHT22;27097;51.738;19.472;2022-08-30T11:31:39;27.00;55.90
18412;DHT22;27097;51.738;19.472;2022-08-30T11:34:10;27.10;56.40
18412;DHT22;27097;51.738;19.472;2022-08-30T11:37:05;27.10;55.60
18412;DHT22;27097;51.738;19.472;2022-08-30T11:39:52;27.00;56.00
18412;DHT22;27097;51.738;19.472;2022-08-30T11:42:35;27.00;55.40
18412;DHT22;27097;51.738;19.472;2022-08-30T11:48:07;27.00;55.40
18412;DHT22;27097;51.738;19.472;2022-08-30T11:50:58;27.00;55.10
18412;DHT22;27097;51.738;19.472;2022-08-30T11:53:30;27.00;54.90
18412;DHT22;27097;51.738;19.472;2022-08-30T11:56:09;27.00;55.10
18412;DHT22;27097;51.738;19.472;2022-08-30T11:58:47;27.00;55.20
18412;DHT22;27097;51.738;19.472;2022-08-30T12:01:19;27.10;54.60
18412;DHT22;27097;51.738;19.472;2022-08-30T12:03:54;27.10;55.30
18412;DHT22;27097;51.738;19.472;2022-08-30T12:07:02;27.10;55.60
18412;DHT22;27097;51.738;19.472;2022-08-30T12:10:02;27.10;55.40
18412;DHT22;27097;51.738;19.472;2022-08-30T12:13:00;27.10;55.90
18412;DHT22;27097;51.738;19.472;2022-08-30T12:18:41;27.10;55.30
18412;DHT22;27097;51.738;19.472;2022-08-30T12:21:23;27.10;55.80
18412;DHT22;27097;51.738;19.472;2022-08-30T12:23:57;27.10;55.60
18412;DHT22;27097;51.738;19.472;2022-08-30T12:26:31;27.20;55.90
18412;DHT22;27097;51.738;19.472;2022-08-30T12:29:20;27.10;56.40
18412;DHT22;27097;51.738;19.472;2022-08-30T12:31:53;27.10;56.10
18412;DHT22;27097;51.738;19.472;2022-08-30T12:34:25;27.10;56.20
18412;DHT22;27097;51.738;19.472;2022-08-30T12:36:56;27.20;56.80
18412;DHT22;27097;51.738;19.472;2022-08-30T12:39:27;27.10;56.60
18412;DHT22;27097;51.738;19.472;2022-08-30T12:41:54;27.10;56.60
18412;DHT22;27097;51.738;19.472;2022-08-30T12:44:24;27.10;56.90
18412;DHT22;27097;51.738;19.472;2022-08-30T12:46:54;27.10;57.20
18412;DHT22;27097;51.738;19.472;2022-08-30T12:49:24;27.20;57.00
18412;DHT22;27097;51.738;19.472;2022-08-30T12:51:52;27.10;57.10
18412;DHT22;27097;51.738;19.472;2022-08-30T12:54:28;27.20;56.90
18412;DHT22;27097;51.738;19.472;2022-08-30T12:57:03;27.10;56.50
18412;DHT22;27097;51.738;19.472;2022-08-30T12:59:44;27.10;57.20
18412;DHT22;27097;51.738;19.472;2022-08-30T13:02:17;27.10;56.30
18412;DHT22;27097;51.738;19.472;2022-08-30T13:04:46;27.10;56.50
18412;DHT22;27097;51.738;19.472;2022-08-30T13:07:30;27.10;55.70
18412;DHT22;27097;51.738;19.472;2022-08-30T13:10:13;27.10;56.40
18412;DHT22;27097;51.738;19.472;2022-08-30T13:12:58;27.10;57.00
18412;DHT22;27097;51.738;19.472;2022-08-30T13:15:31;27.10;57.00
18412;DHT22;27097;51.738;19.472;2022-08-30T13:18:17;27.10;57.20
18412;DHT22;27097;51.738;19.472;2022-08-30T13:20:45;27.10;56.80
18412;DHT22;27097;51.738;19.472;2022-08-30T13:23:21;27.20;56.20
18412;DHT22;27097;51.738;19.472;2022-08-30T13:25:49;27.20;56.20
18412;DHT22;27097;51.738;19.472;2022-08-30T13:28:16;27.20;56.20
18412;DHT22;27097;51.738;19.472;2022-08-30T13:30:47;27.20;56.60
18412;DHT22;27097;51.738;19.472;2022-08-30T13:33:14;27.20;55.40
18412;DHT22;27097;51.738;19.472;2022-08-30T13:35:41;27.20;55.40
18412;DHT22;27097;51.738;19.472;2022-08-30T13:38:08;27.20;55.50
18412;DHT22;27097;51.738;19.472;2022-08-30T13:40:37;27.20;55.30
18412;DHT22;27097;51.738;19.472;2022-08-30T13:43:07;27.20;54.70
18412;DHT22;27097;51.738;19.472;2022-08-30T13:45:34;27.20;55.80
18412;DHT22;27097;51.738;19.472;2022-08-30T13:48:01;27.20;56.20
18412;DHT22;27097;51.738;19.472;2022-08-30T13:50:28;27.20;57.20
18412;DHT22;27097;51.738;19.472;2022-08-30T13:52:55;27.20;57.20
18412;DHT22;27097;51.738;19.472;2022-08-30T13:55:21;27.30;57.10
18412;DHT22;27097;51.738;19.472;2022-08-30T13:57:48;27.20;56.40
18412;DHT22;27097;51.738;19.472;2022-08-30T14:00:17;27.20;56.40
18412;DHT22;27097;51.738;19.472;2022-08-30T14:02:46;27.20;56.40
18412;DHT22;27097;51.738;19.472;2022-08-30T14:05:14;27.20;56.90
18412;DHT22;27097;51.738;19.472;2022-08-30T14:07:40;27.20;57.30
18412;DHT22;27097;51.738;19.472;2022-08-30T14:10:09;27.20;57.20
18412;DHT22;27097;51.738;19.472;2022-08-30T14:12:36;27.20;57.40
18412;DHT22;27097;51.738;19.472;2022-08-30T14:15:03;27.20;56.50
18412;DHT22;27097;51.738;19.472;2022-08-30T14:17:31;27.20;57.10
18412;DHT22;27097;51.738;19.472;2022-08-30T14:20:00;27.20;55.70
18412;DHT22;27097;51.738;19.472;2022-08-30T14:22:27;27.20;55.80
18412;DHT22;27097;51.738;19.472;2022-08-30T14:24:53;27.20;55.80
18412;DHT22;27097;51.738;19.472;2022-08-30T14:27:20;27.20;56.00
18412;DHT22;27097;51.738;19.472;2022-08-30T14:29:48;27.20;56.20
18412;DHT22;27097;51.738;19.472;2022-08-30T14:32:15;27.20;56.40
18412;DHT22;27097;51.738;19.472;2022-08-30T14:34:43;27.20;56.30
18412;DHT22;27097;51.738;19.472;2022-08-30T14:37:10;27.20;56.00
18412;DHT22;27097;51.738;19.472;2022-08-30T14:39:37;27.20;55.60
18412;DHT22;27097;51.738;19.472;2022-08-30T14:42:05;27.20;55.60
18412;DHT22;27097;51.738;19.472;2022-08-30T14:44:32;27.20;55.70
18412;DHT22;27097;51.738;19.472;2022-08-30T14:46:59;27.20;56.40
18412;DHT22;27097;51.738;19.472;2022-08-30T14:49:26;27.20;55.40
18412;DHT22;27097;51.738;19.472;2022-08-30T14:51:55;27.20;55.60
18412;DHT22;27097;51.738;19.472;2022-08-30T14:54:24;27.20;55.80
18412;DHT22;27097;51.738;19.472;2022-08-30T14:56:51;27.10;54.80
18412;DHT22;27097;51.738;19.472;2022-08-30T14:59:19;27.10;54.90
18412;DHT22;27097;51.738;19.472;2022-08-30T15:01:46;27.20;55.00
18412;DHT22;27097;51.738;19.472;2022-08-30T15:04:14;27.10;54.30
18412;DHT22;27097;51.738;19.472;2022-08-30T15:06:45;27.10;54.00
18412;DHT22;27097;51.738;19.472;2022-08-30T15:09:18;27.10;54.00
18412;DHT22;27097;51.738;19.472;2022-08-30T15:11:48;27.10;54.80
18412;DHT22;27097;51.738;19.472;2022-08-30T15:14:17;27.10;53.90
18412;DHT22;27097;51.738;19.472;2022-08-30T15:16:43;27.10;54.80
18412;DHT22;27097;51.738;19.472;2022-08-30T15:19:11;27.10;54.30
18412;DHT22;27097;51.738;19.472;2022-08-30T15:21:40;27.20;53.40
18412;DHT22;27097;51.738;19.472;2022-08-30T15:24:09;27.10;53.80
18412;DHT22;27097;51.738;19.472;2022-08-30T15:26:38;27.10;52.80
18412;DHT22;27097;51.738;19.472;2022-08-30T15:29:08;27.10;52.70
18412;DHT22;27097;51.738;19.472;2022-08-30T15:31:35;27.10;53.20
18412;DHT22;27097;51.738;19.472;2022-08-30T15:34:03;27.10;53.40
18412;DHT22;27097;51.738;19.472;2022-08-30T15:36:30;27.10;52.70
18412;DHT22;27097;51.738;19.472;2022-08-30T15:38:57;27.20;52.90
18412;DHT22;27097;51.738;19.472;2022-08-30T15:41:26;27.20;53.20
18412;DHT22;27097;51.738;19.472;2022-08-30T15:43:55;27.20;53.20